Time;durP1;ratioP1;P1;durP2;ratioP2;P2;SDS_P1;SDS_P2;PMS_P1;PMS_P2;Temp;Humidity;BMP_temperature;BMP_pressure;BME280_temperature;BME280_humidity;BME280_pressure;Samples;Min_cycle;Max_cycle;Signal;HPM_P1;HPM_P2
2023/08/02 00:01:30;;;;;;;0.10;0.10;;;;;;;19.10;60.22;98811.84;4434019;32;20086;-85
2023/08/02 00:03:56;;;;;;;0.13;0.13;;;;;;;18.96;60.21;98820.91;4444896;32;20434;-86
2023/08/02 00:06:21;;;;;;;0.17;0.17;;;;;;;18.90;60.20;98829.28;4411404;32;20120;-87
2023/08/02 00:08:47;;;;;;;0.40;0.20;;;;;;;19.00;60.20;98819.69;4423459;32;20137;-86
2023/08/02 00:11:16;;;;;;;0.00;0.00;;;;;;;19.02;60.22;98829.16;4438192;32;20128;-86
2023/08/02 00:13:41;;;;;;;0.20;0.20;;;;;;;19.24;60.21;98822.97;4436314;32;20145;-86
2023/08/02 00:16:07;;;;;;;0.00;0.00;;;;;;;19.08;60.21;98838.34;4436159;32;20738;-86
2023/08/02 00:18:32;;;;;;;0.10;0.10;;;;;;;18.98;60.20;98856.75;4436615;32;20117;-86
2023/08/02 00:20:58;;;;;;;0.45;0.45;;;;;;;19.26;60.22;98855.34;4423730;32;20115;-85
2023/08/02 00:23:23;;;;;;;0.10;0.10;;;;;;;18.97;60.21;98859.50;4437802;32;20127;-86
2023/08/02 00:25:49;;;;;;;0.15;0.15;;;;;;;18.86;60.20;98862.16;4423277;32;20168;-86
2023/08/02 00:28:14;;;;;;;0.00;0.00;;;;;;;18.90;60.20;98868.84;4436281;32;20186;-84
2023/08/02 00:30:46;;;;;;;0.47;0.32;;;;;;;18.89;60.21;98869.81;4437780;32;20498;-86
2023/08/02 00:33:12;;;;;;;0.10;0.10;;;;;;;18.76;60.19;98867.34;4436798;32;20081;-87
2023/08/02 00:35:44;;;;;;;0.45;0.20;;;;;;;18.76;60.20;98863.84;4436576;32;20177;-86
2023/08/02 00:38:10;;;;;;;0.30;0.30;;;;;;;18.83;60.20;98855.31;4423566;32;20105;-86
2023/08/02 00:40:36;;;;;;;0.10;0.10;;;;;;;18.78;60.20;98865.41;4423776;32;20109;-87
2023/08/02 00:43:01;;;;;;;0.05;0.05;;;;;;;18.84;60.20;98858.78;4423078;32;24164;-86
2023/08/02 00:45:26;;;;;;;0.00;0.00;;;;;;;18.84;60.19;98857.00;4422875;32;33925;-87
2023/08/02 00:47:52;;;;;;;0.17;0.17;;;;;;;18.69;60.20;98864.34;4436327;32;20105;-88
2023/08/02 00:50:19;;;;;;;0.05;0.05;;;;;;;18.61;60.18;98853.53;4436526;32;20474;-88
2023/08/02 00:52:44;;;;;;;0.10;0.10;;;;;;;18.65;60.19;98852.34;4436206;32;20109;-89
2023/08/02 00:55:10;;;;;;;0.00;0.00;;;;;;;18.65;60.18;98846.25;4436445;32;20364;-89
2023/08/02 00:57:35;;;;;;;0.10;0.10;;;;;;;18.63;60.19;98845.53;4410341;32;20512;-90
2023/08/02 01:00:01;;;;;;;1.10;0.75;;;;;;;18.55;60.19;98846.12;4423452;32;20462;-90
2023/08/02 01:02:26;;;;;;;0.00;0.00;;;;;;;18.77;60.19;98854.97;4423323;32;28868;-90
2023/08/02 01:04:52;;;;;;;0.80;0.80;;;;;;;18.65;60.19;98862.91;4423913;32;20160;-88
2023/08/02 01:07:29;;;;;;;0.55;0.55;;;;;;;18.55;60.19;98864.56;4424274;32;20197;-88
2023/08/02 01:10:06;;;;;;;0.00;0.00;;;;;;;18.49;60.18;98872.97;4425062;32;20093;-88
2023/08/02 01:12:31;;;;;;;0.00;0.00;;;;;;;18.60;60.18;98869.47;4412225;32;20096;-88
2023/08/02 01:14:57;;;;;;;0.20;0.17;;;;;;;18.49;60.18;98874.75;4436959;32;20630;-88
2023/08/02 01:17:26;;;;;;;0.10;0.10;;;;;;;18.48;60.19;98873.91;4437621;32;20159;-88
2023/08/02 01:19:51;;;;;;;0.37;0.37;;;;;;;18.45;60.18;98871.50;4424674;32;20525;-88
2023/08/02 01:22:17;;;;;;;0.00;0.00;;;;;;;18.45;60.18;98868.03;4424344;32;20143;-88
2023/08/02 01:24:42;;;;;;;0.10;0.10;;;;;;;18.52;60.18;98870.06;4436683;32;23682;-88
2023/08/02 01:27:13;;;;;;;0.08;0.08;;;;;;;18.53;60.18;98865.66;4437202;32;20486;-88
2023/08/02 01:29:42;;;;;;;0.00;0.00;;;;;;;18.45;60.18;98870.66;4425023;32;20089;-88
2023/08/02 01:32:07;;;;;;;0.00;0.00;;;;;;;18.52;60.18;98866.59;4439434;32;20085;-88
2023/08/02 01:34:33;;;;;;;0.10;0.10;;;;;;;18.55;60.19;98872.47;4438572;32;29421;-88
2023/08/02 01:36:58;;;;;;;0.03;0.03;;;;;;;18.57;60.19;98867.06;4439072;32;20442;-88
2023/08/02 01:39:23;;;;;;;0.43;0.43;;;;;;;18.59;60.18;98876.53;4413342;32;20145;-88
2023/08/02 01:41:49;;;;;;;0.55;0.43;;;;;;;18.51;60.19;98868.41;4438794;32;20487;-89
2023/08/02 01:44:14;;;;;;;0.00;0.00;;;;;;;18.35;60.17;98865.28;4438457;32;29499;-89
2023/08/02 01:46:40;;;;;;;1.23;1.12;;;;;;;18.42;60.17;98864.66;4426165;32;20131;-89
2023/08/02 01:49:05;;;;;;;0.22;0.22;;;;;;;18.54;60.18;98872.59;4439134;32;20117;-88
2023/08/02 01:51:30;;;;;;;0.22;0.22;;;;;;;18.67;60.19;98874.16;4439129;32;20101;-88
2023/08/02 01:53:56;;;;;;;1.02;0.50;;;;;;;18.47;60.17;98876.69;4439053;32;20125;-88
2023/08/02 01:56:21;;;;;;;0.08;0.08;;;;;;;18.37;60.17;98871.25;4439180;32;20105;-90
2023/08/02 01:58:47;;;;;;;0.35;0.25;;;;;;;18.48;60.18;98878.34;4438981;32;20124;-90
2023/08/02 02:01:12;;;;;;;0.00;0.00;;;;;;;18.53;60.18;98868.28;4413466;32;20184;-90
2023/08/02 02:03:38;;;;;;;0.10;0.10;;;;;;;18.24;60.17;98875.81;4425963;32;20132;-87
2023/08/02 02:06:03;;;;;;;0.20;0.20;;;;;;;18.44;60.18;98883.00;4426083;32;20195;-89
2023/08/02 02:08:28;;;;;;;0.10;0.10;;;;;;;18.44;60.18;98885.63;4425994;32;20116;-89
2023/08/02 02:10:54;;;;;;;0.15;0.15;;;;;;;18.37;60.17;98885.28;4439003;32;20093;-88
2023/08/02 02:13:22;;;;;;;1.20;0.90;;;;;;;18.27;60.17;98886.97;4438847;32;20109;-88
2023/08/02 02:15:47;;;;;;;0.00;0.00;;;;;;;18.30;60.17;98884.09;4440241;32;20167;-88
2023/08/02 02:18:13;;;;;;;0.20;0.20;;;;;;;18.41;60.18;98881.44;4438865;32;20421;-88
2023/08/02 02:20:38;;;;;;;0.20;0.20;;;;;;;18.25;60.17;98891.50;4438873;32;20460;-90
2023/08/02 02:25:47;;;;;;;0.30;0.30;;;;;;;18.22;60.16;98891.75;4439144;32;20127;-89
2023/08/02 02:28:13;;;;;;;0.00;0.00;;;;;;;17.81;60.15;98899.31;4426198;32;20125;-88
2023/08/02 02:30:41;;;;;;;0.00;0.00;;;;;;;17.92;60.16;98897.53;4438874;32;20231;-88
2023/08/02 02:33:07;;;;;;;0.05;0.05;;;;;;;18.07;60.15;98896.37;4426053;32;20121;-88
2023/08/02 02:35:32;;;;;;;0.00;0.00;;;;;;;18.04;60.16;98904.53;4438779;32;20500;-89
2023/08/02 02:37:58;;;;;;;0.57;0.57;;;;;;;17.98;60.16;98901.50;4425912;32;20146;-88
2023/08/02 02:40:23;;;;;;;0.32;0.30;;;;;;;17.75;60.14;98901.47;4438132;32;24840;-88
2023/08/02 02:42:48;;;;;;;0.30;0.30;;;;;;;17.81;60.15;98917.75;4424996;32;20129;-88
2023/08/02 02:45:14;;;;;;;0.00;0.00;;;;;;;17.79;60.15;98916.06;4439979;32;20144;-88
2023/08/02 02:47:39;;;;;;;0.00;0.00;;;;;;;17.95;60.16;98909.63;4438893;32;20097;-87
2023/08/02 02:50:05;;;;;;;0.00;0.00;;;;;;;17.89;60.14;98916.19;4438458;32;20111;-88
2023/08/02 02:52:31;;;;;;;0.00;0.00;;;;;;;17.93;60.16;98914.19;4438716;32;20097;-87
2023/08/02 02:54:56;;;;;;;0.00;0.00;;;;;;;17.90;60.14;98914.41;4438701;32;20485;-87
2023/08/02 02:57:22;;;;;;;0.00;0.00;;;;;;;17.92;60.15;98912.50;4438721;32;20094;-87
2023/08/02 02:59:47;;;;;;;0.20;0.10;;;;;;;18.08;60.17;98932.28;4439866;32;20139;-87
2023/08/02 03:02:13;;;;;;;0.00;0.00;;;;;;;17.88;60.16;98929.47;4439587;32;20116;-88
2023/08/02 03:04:38;;;;;;;0.00;0.00;;;;;;;17.87;60.15;98933.91;4439700;32;20501;-87
2023/08/02 03:07:04;;;;;;;0.60;0.60;;;;;;;17.76;60.14;98933.87;4438488;32;20159;-88
2023/08/02 03:09:29;;;;;;;0.00;0.00;;;;;;;17.71;60.14;98946.53;4439880;32;20081;-88
2023/08/02 03:11:55;;;;;;;0.17;0.17;;;;;;;17.82;60.14;98938.69;4438206;32;20127;-89
2023/08/02 03:14:21;;;;;;;0.00;0.00;;;;;;;17.91;60.14;98939.78;4425364;32;20152;-88
2023/08/02 03:16:47;;;;;;;0.65;0.65;;;;;;;18.26;60.17;98943.25;4436539;32;20448;-87
2023/08/02 03:19:12;;;;;;;0.00;0.00;;;;;;;17.89;60.15;98942.53;4438175;32;20113;-88
2023/08/02 03:21:38;;;;;;;0.00;0.00;;;;;;;17.78;60.14;98951.25;4438520;32;20167;-88
2023/08/02 03:24:04;;;;;;;0.00;0.00;;;;;;;17.96;60.15;98953.44;4438533;32;20364;-86
2023/08/02 03:26:30;;;;;;;0.00;0.00;;;;;;;17.69;60.13;98956.34;4438168;32;20124;-86
2023/08/02 03:28:55;;;;;;;0.00;0.00;;;;;;;17.84;60.14;98946.47;4438000;32;20108;-87
2023/08/02 03:31:20;;;;;;;0.00;0.00;;;;;;;17.84;60.14;98949.94;4450067;32;29054;-88
2023/08/02 03:33:46;;;;;;;0.00;0.00;;;;;;;17.87;60.15;98957.59;4432369;32;20487;-90
2023/08/02 03:36:11;;;;;;;0.00;0.00;;;;;;;17.83;60.14;98958.78;4451015;32;20121;-88
2023/08/02 03:38:36;;;;;;;0.37;0.37;;;;;;;18.00;60.15;98962.81;4425306;32;20130;-89
2023/08/02 03:41:02;;;;;;;0.20;0.20;;;;;;;17.87;60.15;98960.25;4425404;32;20114;-90
2023/08/02 03:43:27;;;;;;;0.00;0.00;;;;;;;18.00;60.15;98950.47;4412223;32;20161;-88
2023/08/02 03:45:53;;;;;;;10.43;0.68;;;;;;;17.83;60.14;98952.69;4439158;32;20086;-88
2023/08/02 03:48:18;;;;;;;0.45;0.45;;;;;;;18.06;60.16;98955.28;4411922;32;26268;-87
2023/08/02 03:50:43;;;;;;;0.00;0.00;;;;;;;18.03;60.16;98958.16;4425247;32;20420;-87
2023/08/02 03:53:09;;;;;;;0.00;0.00;;;;;;;18.04;60.16;98961.62;4424514;32;20137;-86
2023/08/02 03:55:34;;;;;;;0.00;0.00;;;;;;;18.05;60.16;98956.25;4412596;32;20089;-88
2023/08/02 03:58:00;;;;;;;0.10;0.10;;;;;;;17.91;60.14;98950.31;4424662;32;26492;-87
2023/08/02 04:00:25;;;;;;;0.00;0.00;;;;;;;17.90;60.15;98960.00;4424913;32;27705;-87
2023/08/02 04:02:51;;;;;;;0.17;0.17;;;;;;;18.18;60.17;98952.66;4424510;32;25677;-88
2023/08/02 04:05:16;;;;;;;0.00;0.00;;;;;;;18.03;60.16;98959.94;4425397;32;20101;-88
2023/08/02 04:07:42;;;;;;;0.00;0.00;;;;;;;18.19;60.17;98967.50;4425263;32;20130;-87
2023/08/02 04:10:08;;;;;;;0.00;0.00;;;;;;;18.09;60.16;98959.47;4425409;32;20452;-88
2023/08/02 04:12:33;;;;;;;0.00;0.00;;;;;;;18.08;60.15;98955.16;4439338;32;20094;-88
2023/08/02 04:14:59;;;;;;;0.00;0.00;;;;;;;18.14;60.15;98957.31;4399857;32;20081;-88
2023/08/02 04:17:27;;;;;;;0.00;0.00;;;;;;;18.40;60.18;98961.44;4438847;32;20103;-88
2023/08/02 04:19:52;;;;;;;0.17;0.17;;;;;;;18.54;60.18;98960.41;4439203;32;20081;-88
2023/08/02 04:22:17;;;;;;;0.00;0.00;;;;;;;18.48;60.18;98962.69;4425271;32;20143;-88
2023/08/02 04:24:43;;;;;;;0.20;0.20;;;;;;;18.41;60.17;98967.56;4438639;32;25140;-88
2023/08/02 04:27:08;;;;;;;0.25;0.25;;;;;;;18.46;60.17;98973.34;4424924;32;20103;-88
2023/08/02 04:29:34;;;;;;;0.00;0.00;;;;;;;18.65;60.19;98970.97;4424881;32;20101;-87
2023/08/02 04:31:59;;;;;;;0.10;0.10;;;;;;;18.98;60.20;98964.87;4424965;32;20457;-88
2023/08/02 04:34:24;;;;;;;0.00;0.00;;;;;;;18.90;60.20;98974.31;4424992;32;20426;-88
2023/08/02 04:36:51;;;;;;;0.00;0.00;;;;;;;18.79;60.20;98979.63;4439120;32;20125;-88
2023/08/02 04:39:16;;;;;;;0.10;0.10;;;;;;;19.01;60.21;98967.25;4439204;32;20082;-88
2023/08/02 04:41:42;;;;;;;9.43;1.33;;;;;;;18.96;60.21;98965.97;4425148;32;20410;-88
2023/08/02 04:44:07;;;;;;;0.00;0.00;;;;;;;19.11;60.21;98963.87;4412066;32;20194;-89
2023/08/02 04:46:33;;;;;;;0.00;0.00;;;;;;;19.19;60.22;98962.34;4424728;32;20078;-89
2023/08/02 04:48:58;;;;;;;0.00;0.00;;;;;;;19.25;60.22;98972.37;4424691;32;20176;-88
2023/08/02 04:51:23;;;;;;;0.00;0.00;;;;;;;19.24;60.21;98959.31;4438935;32;20109;-88
2023/08/02 04:53:49;;;;;;;0.70;0.70;;;;;;;19.33;60.23;98967.31;4424058;32;28959;-89
2023/08/02 04:56:15;;;;;;;0.00;0.00;;;;;;;19.55;60.24;98973.53;4424641;32;20220;-88
2023/08/02 04:58:41;;;;;;;0.00;0.00;;;;;;;19.49;60.23;98961.66;4411919;32;20137;-89
2023/08/02 05:01:06;;;;;;;0.20;0.20;;;;;;;19.59;60.24;98967.88;4438828;32;20366;-88
2023/08/02 05:03:35;;;;;;;0.20;0.20;;;;;;;19.58;60.24;98968.00;4424075;32;24714;-89
2023/08/02 05:06:01;;;;;;;0.00;0.00;;;;;;;19.60;60.23;98976.62;4413227;32;20112;-88
2023/08/02 05:08:29;;;;;;;0.30;0.30;;;;;;;19.60;60.24;98969.56;4426655;32;20101;-88
2023/08/02 05:10:54;;;;;;;0.00;0.00;;;;;;;19.66;60.24;98975.34;4413965;32;20097;-88
2023/08/02 05:13:22;;;;;;;0.08;0.08;;;;;;;19.81;60.25;98974.88;4426608;32;20148;-88
2023/08/02 05:15:47;;;;;;;1.17;0.52;;;;;;;19.71;60.24;98976.62;4426573;32;20107;-88
2023/08/02 05:18:13;;;;;;;0.00;0.00;;;;;;;19.79;60.25;98971.53;4413252;32;20409;-89
2023/08/02 05:20:38;;;;;;;0.00;0.00;;;;;;;19.88;60.25;98962.03;4440258;32;20143;-88
2023/08/02 05:23:04;;;;;;;0.10;0.10;;;;;;;19.84;60.25;98972.00;4426511;32;20138;-89
2023/08/02 05:25:33;;;;;;;0.00;0.00;;;;;;;20.08;60.26;98974.41;4426028;32;21129;-88
2023/08/02 05:27:58;;;;;;;0.03;0.03;;;;;;;19.86;60.26;98972.69;4413764;32;20098;-89
2023/08/02 05:30:24;;;;;;;0.00;0.00;;;;;;;19.92;60.25;98976.66;4426480;32;20551;-89
2023/08/02 05:32:49;;;;;;;0.25;0.25;;;;;;;19.89;60.25;98980.41;4426517;32;20754;-88
2023/08/02 05:35:14;;;;;;;0.00;0.00;;;;;;;20.03;60.27;98986.31;4413567;32;20445;-89
2023/08/02 05:37:40;;;;;;;0.00;0.00;;;;;;;20.15;60.26;98978.22;4413293;32;20122;-88
2023/08/02 05:40:06;;;;;;;0.20;0.20;;;;;;;19.87;60.25;98984.97;4400832;32;20439;-89
2023/08/02 05:42:31;;;;;;;0.00;0.00;;;;;;;19.96;60.26;98983.38;4426301;32;20139;-89
2023/08/02 05:44:57;;;;;;;0.00;0.00;;;;;;;20.03;60.26;98988.97;4425676;32;26206;-89
2023/08/02 05:47:22;;;;;;;0.15;0.15;;;;;;;20.27;60.27;98992.22;4413496;32;20146;-88
2023/08/02 05:49:50;;;;;;;0.00;0.00;;;;;;;20.38;60.27;98994.81;4425784;32;22948;-89
2023/08/02 05:52:16;;;;;;;2.08;0.37;;;;;;;20.52;60.29;98985.72;4426527;32;20093;-89
2023/08/02 05:54:41;;;;;;;0.00;0.00;;;;;;;20.29;60.27;98987.63;4413555;32;20140;-89
2023/08/02 05:57:09;;;;;;;0.10;0.10;;;;;;;20.53;60.28;98990.88;4426382;32;20110;-89
2023/08/02 05:59:37;;;;;;;2.37;0.52;;;;;;;20.62;60.29;98996.38;4426176;32;20184;-89
2023/08/02 06:02:06;;;;;;;0.45;0.45;;;;;;;20.54;60.29;99000.47;4413671;32;20089;-89
2023/08/02 06:04:34;;;;;;;0.00;0.00;;;;;;;20.90;60.31;98989.53;4440325;32;20478;-89
2023/08/02 06:06:59;;;;;;;0.00;0.00;;;;;;;20.87;60.31;98995.94;4440283;32;20109;-88
2023/08/02 06:09:25;;;;;;;2.12;0.47;;;;;;;20.93;60.30;99005.13;4439684;32;26229;-89
2023/08/02 06:11:50;;;;;;;0.37;0.37;;;;;;;21.01;60.31;99005.31;4426088;32;20152;-89
2023/08/02 06:14:16;;;;;;;0.00;0.00;;;;;;;21.03;60.31;99011.28;4426116;32;20149;-90
2023/08/02 06:16:41;;;;;;;0.40;0.30;;;;;;;21.08;60.32;99006.47;4413305;32;20493;-89
2023/08/02 06:19:07;;;;;;;0.15;0.15;;;;;;;21.09;60.32;99014.28;4439366;32;28233;-90
2023/08/02 06:21:34;;;;;;;0.00;0.00;;;;;;;21.07;60.31;99018.03;4400636;32;20413;-89
2023/08/02 06:23:59;;;;;;;0.62;0.45;;;;;;;21.13;60.32;99010.37;4413357;32;20443;-89
2023/08/02 06:26:25;;;;;;;0.00;0.00;;;;;;;21.23;60.32;99013.06;4425964;32;20109;-89
2023/08/02 06:28:50;;;;;;;0.03;0.03;;;;;;;21.08;60.31;99015.25;4426097;32;20143;-89
2023/08/02 06:31:15;;;;;;;0.10;0.10;;;;;;;20.97;60.31;99017.13;4400491;32;20117;-89
2023/08/02 06:33:41;;;;;;;0.35;0.35;;;;;;;21.28;60.32;99026.75;4413129;32;20126;-89
2023/08/02 06:36:06;;;;;;;0.00;0.00;;;;;;;21.28;60.33;99020.63;4425913;32;20105;-89
2023/08/02 06:38:34;;;;;;;0.08;0.08;;;;;;;21.42;60.33;99020.25;4413319;32;20451;-89
2023/08/02 06:41:00;;;;;;;0.00;0.00;;;;;;;21.53;60.34;99025.44;4425791;32;20462;-89
2023/08/02 06:43:25;;;;;;;0.00;0.00;;;;;;;21.62;60.34;99029.09;4440067;32;20116;-89
2023/08/02 06:45:51;;;;;;;1.25;0.45;;;;;;;21.67;60.35;99034.78;4426059;32;20414;-89
2023/08/02 06:48:18;;;;;;;2.00;0.60;;;;;;;21.74;60.35;99028.81;4440062;32;20137;-89
2023/08/02 06:50:43;;;;;;;0.00;0.00;;;;;;;21.82;60.36;99029.97;4426068;32;20116;-89
2023/08/02 06:53:09;;;;;;;0.22;0.22;;;;;;;21.90;60.36;99025.63;4425276;32;24712;-89
2023/08/02 06:55:34;;;;;;;1.48;0.93;;;;;;;22.01;60.36;99029.97;4425937;32;20109;-89
2023/08/02 06:57:59;;;;;;;0.00;0.00;;;;;;;22.01;60.36;99024.69;4413273;32;20386;-88
2023/08/02 07:00:25;;;;;;;0.10;0.10;;;;;;;22.09;60.37;99032.78;4425856;32;20125;-89
2023/08/02 07:02:50;;;;;;;0.00;0.00;;;;;;;22.24;60.37;99023.44;4425908;32;20410;-89
2023/08/02 07:05:16;;;;;;;0.00;0.00;;;;;;;22.37;60.38;99026.63;4425107;32;28330;-89
2023/08/02 07:07:41;;;;;;;0.00;0.00;;;;;;;22.65;60.40;99032.84;4425889;32;20098;-89
2023/08/02 07:10:07;;;;;;;0.00;0.00;;;;;;;22.75;60.40;99040.81;4425773;32;20427;-89
2023/08/02 07:12:32;;;;;;;0.00;0.00;;;;;;;22.52;60.39;99040.28;4439841;32;20081;-89
2023/08/02 07:14:57;;;;;;;0.40;0.28;;;;;;;22.50;60.38;99038.78;4425589;32;20190;-88
2023/08/02 07:17:23;;;;;;;0.10;0.10;;;;;;;22.51;60.39;99037.78;4425734;32;20153;-88
2023/08/02 07:19:48;;;;;;;0.75;0.75;;;;;;;22.60;60.40;99035.09;4439502;32;20097;-88
2023/08/02 07:22:17;;;;;;;0.00;0.00;;;;;;;22.59;60.40;99035.25;4425814;32;20115;-89
2023/08/02 07:24:43;;;;;;;0.00;0.00;;;;;;;22.62;60.39;99027.84;4426015;32;20093;-86
2023/08/02 07:27:09;;;;;;;0.30;0.20;;;;;;;22.52;60.39;99021.72;4412636;32;20101;-87
2023/08/02 07:29:35;;;;;;;0.00;0.00;;;;;;;22.81;60.41;99026.13;4413032;32;20108;-86
2023/08/02 07:32:00;;;;;;;0.00;0.00;;;;;;;22.71;60.40;99020.81;4400282;32;20082;-87
2023/08/02 07:34:26;;;;;;;0.20;0.20;;;;;;;22.76;60.40;99025.72;4424944;32;29236;-86
2023/08/02 07:36:51;;;;;;;0.00;0.00;;;;;;;22.94;60.41;99024.00;4440519;32;20166;-86
2023/08/02 07:39:17;;;;;;;0.00;0.00;;;;;;;22.81;60.39;99029.66;4439546;32;20089;-86
2023/08/02 07:41:42;;;;;;;0.00;0.00;;;;;;;22.91;60.42;99024.28;4425601;32;20085;-87
2023/08/02 07:44:08;;;;;;;0.00;0.00;;;;;;;23.13;60.43;99025.75;4439821;32;20311;-86
2023/08/02 07:46:33;;;;;;;0.00;0.00;;;;;;;23.29;60.43;99020.66;4451322;32;20150;-86
2023/08/02 07:48:59;;;;;;;0.20;0.20;;;;;;;23.46;60.44;99022.53;4438369;32;20129;-86
2023/08/02 07:51:24;;;;;;;0.00;0.00;;;;;;;23.47;60.44;99031.34;4438404;32;20145;-87
2023/08/02 07:53:49;;;;;;;0.00;0.00;;;;;;;23.46;60.44;99025.19;4438172;32;20442;-86
2023/08/02 07:56:15;;;;;;;0.10;0.10;;;;;;;23.40;60.43;99024.91;4438150;32;20101;-87
2023/08/02 07:58:40;;;;;;;0.70;0.65;;;;;;;23.56;60.44;99031.28;4439421;32;20097;-87
2023/08/02 08:01:09;;;;;;;0.30;0.22;;;;;;;23.50;60.44;99033.69;4439621;32;20423;-86
2023/08/02 08:03:35;;;;;;;0.22;0.00;;;;;;;23.67;60.46;99026.78;4451046;32;20128;-86
2023/08/02 08:06:00;;;;;;;0.15;0.15;;;;;;;23.83;60.47;99024.25;4438283;32;20094;-86
2023/08/02 08:08:25;;;;;;;0.00;0.00;;;;;;;23.82;60.45;99020.78;4438271;32;20111;-86
2023/08/02 08:10:51;;;;;;;0.10;0.10;;;;;;;23.77;60.45;99017.75;4437799;32;22480;-86
2023/08/02 08:13:17;;;;;;;0.00;0.00;;;;;;;24.02;60.47;99020.63;4425255;32;20101;-86
2023/08/02 08:15:43;;;;;;;0.25;0.25;;;;;;;24.01;60.47;99016.31;4425204;32;20124;-86
2023/08/02 08:18:09;;;;;;;0.00;0.00;;;;;;;24.12;60.47;99011.56;4438037;32;20088;-86
2023/08/02 08:20:34;;;;;;;0.20;0.20;;;;;;;24.26;60.48;99012.03;4437993;32;20138;-86
2023/08/02 08:22:59;;;;;;;0.00;0.00;;;;;;;24.36;60.48;99016.28;4424873;32;20128;-86
2023/08/02 08:25:25;;;;;;;0.00;0.00;;;;;;;24.46;60.50;99022.38;4437976;32;20090;-86
2023/08/02 08:27:50;;;;;;;0.37;0.20;;;;;;;24.31;60.49;99013.28;4438575;32;25969;-87
2023/08/02 08:30:16;;;;;;;0.22;0.22;;;;;;;24.54;60.50;99020.75;4439225;32;20412;-86
2023/08/02 08:32:41;;;;;;;0.00;0.00;;;;;;;24.69;60.51;99013.88;4437983;32;20094;-87
2023/08/02 08:35:09;;;;;;;0.00;0.00;;;;;;;24.89;60.52;99014.50;4424370;32;29079;-86
2023/08/02 08:37:34;;;;;;;0.00;0.00;;;;;;;25.07;60.53;99005.47;4437925;32;20473;-86
2023/08/02 08:40:00;;;;;;;0.00;0.00;;;;;;;25.21;60.53;99016.50;4436444;32;20153;-86
2023/08/02 08:42:25;;;;;;;0.00;0.00;;;;;;;25.27;60.53;99019.38;4437822;32;20439;-86
2023/08/02 08:44:51;;;;;;;0.10;0.10;;;;;;;25.48;60.55;99023.44;4437516;32;20150;-86
2023/08/02 08:47:17;;;;;;;0.00;0.00;;;;;;;25.73;60.56;99019.88;4439120;32;20154;-87
2023/08/02 08:49:46;;;;;;;0.00;0.00;;;;;;;25.64;60.55;99027.00;4437167;32;28813;-86
2023/08/02 08:52:12;;;;;;;0.00;0.00;;;;;;;25.63;60.56;99025.34;4437856;32;20117;-87
2023/08/02 08:54:37;;;;;;;0.00;0.00;;;;;;;26.03;60.58;99031.78;4424805;32;20144;-87
2023/08/02 08:57:03;;;;;;;0.00;0.00;;;;;;;26.18;60.59;99029.28;4412378;32;20076;-86
2023/08/02 08:59:28;;;;;;;0.00;0.00;;;;;;;26.19;60.58;99030.94;4439069;32;20460;-87
2023/08/02 09:01:54;;;;;;;0.00;0.00;;;;;;;26.20;60.58;99019.28;4437645;32;20200;-87
2023/08/02 09:04:19;;;;;;;0.00;0.00;;;;;;;26.29;60.59;99023.63;4437515;32;20443;-87
2023/08/02 09:06:44;;;;;;;0.00;0.00;;;;;;;26.44;60.60;99019.28;4438633;32;20436;-87
2023/08/02 09:09:13;;;;;;;0.00;0.00;;;;;;;26.59;60.60;99017.63;4424580;32;20119;-87
2023/08/02 09:11:39;;;;;;;0.10;0.10;;;;;;;26.66;60.61;99011.59;4438841;32;20102;-87
2023/08/02 09:14:09;;;;;;;0.05;0.03;;;;;;;26.84;60.62;99009.56;4437406;32;20113;-87
2023/08/02 09:16:35;;;;;;;0.10;0.10;;;;;;;26.83;60.62;99002.56;4437489;32;20163;-87
2023/08/02 09:19:01;;;;;;;0.00;0.00;;;;;;;26.82;60.62;99001.72;4437269;32;20109;-87
2023/08/02 09:21:26;;;;;;;3.83;0.30;;;;;;;26.99;60.62;99012.38;4438475;32;20339;-87
2023/08/02 09:24:00;;;;;;;0.00;0.00;;;;;;;27.19;60.63;99011.81;4436527;32;28667;-88
2023/08/02 09:26:27;;;;;;;0.00;0.00;;;;;;;27.12;60.64;98999.31;4437317;32;20390;-87
2023/08/02 09:29:04;;;;;;;0.00;0.00;;;;;;;27.15;60.64;99004.31;4437261;32;20125;-88
2023/08/02 09:31:33;;;;;;;0.00;0.00;;;;;;;27.43;60.64;99010.87;4437019;32;20101;-87
2023/08/02 09:33:58;;;;;;;0.80;0.47;;;;;;;27.70;60.66;99003.44;4437046;32;20510;-87
2023/08/02 09:36:31;;;;;;;0.00;0.00;;;;;;;27.77;60.67;99004.38;4436926;32;20125;-87
2023/08/02 09:39:09;;;;;;;0.03;0.03;;;;;;;27.82;60.67;99010.00;4411782;32;20146;-87
2023/08/02 09:41:34;;;;;;;0.00;0.00;;;;;;;28.05;60.68;99004.66;4425356;32;20094;-87
2023/08/02 09:44:00;;;;;;;0.00;0.00;;;;;;;28.35;60.70;99003.78;4423987;32;20161;-87
2023/08/02 09:46:26;;;;;;;0.00;0.00;;;;;;;27.97;60.68;99008.25;4424061;32;20449;-87
2023/08/02 09:48:52;;;;;;;0.13;0.13;;;;;;;27.91;60.67;99010.78;4438191;32;20094;-88
2023/08/02 09:51:17;;;;;;;0.40;0.40;;;;;;;27.82;60.67;99016.19;4412308;32;20169;-88
2023/08/02 09:54:03;;;;;;;3.30;0.80;;;;;;;27.86;60.68;99016.66;4440255;32;20215;-88
2023/08/02 09:56:28;;;;;;;0.00;0.00;;;;;;;27.96;60.68;99016.47;4438235;32;26033;-87
2023/08/02 09:58:54;;;;;;;0.10;0.10;;;;;;;28.04;60.68;99016.38;4425542;32;25004;-87
2023/08/02 10:01:21;;;;;;;0.00;0.00;;;;;;;28.13;60.69;99012.63;4426483;32;20170;-87
2023/08/02 10:03:51;;;;;;;0.00;0.00;;;;;;;28.54;60.71;99005.13;4413554;32;20114;-86
2023/08/02 10:06:17;;;;;;;0.00;0.00;;;;;;;28.95;60.74;99004.72;4414360;32;20111;-86
2023/08/02 10:08:42;;;;;;;0.00;0.00;;;;;;;29.16;60.74;99010.19;4425692;32;21451;-86
2023/08/02 10:11:07;;;;;;;0.00;0.00;;;;;;;29.16;60.74;99007.50;4412808;32;29008;-86
2023/08/02 10:13:33;;;;;;;0.00;0.00;;;;;;;29.17;60.74;99009.16;4426500;32;20114;-86
2023/08/02 10:15:58;;;;;;;0.00;0.00;;;;;;;29.18;60.75;99005.47;4426014;32;20089;-86
2023/08/02 10:18:24;;;;;;;0.10;0.10;;;;;;;29.30;60.75;99001.28;4413404;32;20101;-86
2023/08/02 10:20:50;;;;;;;2.05;1.35;;;;;;;29.40;60.75;99003.69;4413422;32;20106;-86
2023/08/02 10:23:15;;;;;;;0.10;0.10;;;;;;;29.32;60.75;98995.72;4413198;32;20113;-86
2023/08/02 10:25:41;;;;;;;0.00;0.00;;;;;;;29.08;60.74;98996.03;4413385;32;20102;-85
2023/08/02 10:28:06;;;;;;;0.65;0.28;;;;;;;29.02;60.74;98993.06;4413278;32;20089;-86
2023/08/02 10:30:32;;;;;;;0.25;0.10;;;;;;;29.07;60.74;98994.37;4440002;32;20146;-86
2023/08/02 10:33:14;;;;;;;0.10;0.10;;;;;;;29.22;60.74;98987.16;4425497;32;26087;-86
2023/08/02 10:35:53;;;;;;;0.10;0.10;;;;;;;29.19;60.75;98979.50;4400714;32;20081;-86
2023/08/02 10:38:18;;;;;;;0.10;0.10;;;;;;;29.24;60.75;98985.13;4440074;32;20202;-85
2023/08/02 10:41:01;;;;;;;0.28;0.28;;;;;;;29.20;60.75;98981.16;4439791;32;20105;-85
2023/08/02 10:43:26;;;;;;;0.13;0.13;;;;;;;29.32;60.75;98979.63;4426016;32;20463;-85
2023/08/02 10:46:17;;;;;;;0.00;0.00;;;;;;;29.38;60.76;98973.53;4425681;32;20163;-85
2023/08/02 10:48:43;;;;;;;0.00;0.00;;;;;;;29.50;60.76;98972.06;4440046;32;20194;-85
2023/08/02 10:51:37;;;;;;;0.20;0.20;;;;;;;29.55;60.76;98971.47;4413245;32;20450;-85
2023/08/02 10:54:10;;;;;;;0.00;0.00;;;;;;;30.12;60.80;98960.75;4426143;32;20110;-84
2023/08/02 10:56:52;;;;;;;0.10;0.00;;;;;;;30.16;60.79;98961.19;4413610;32;20161;-84
2023/08/02 10:59:23;;;;;;;0.20;0.20;;;;;;;30.12;60.79;98959.91;4425851;32;20090;-83
2023/08/02 11:01:54;;;;;;;0.00;0.00;;;;;;;30.32;60.80;98960.09;4439770;32;20181;-83
2023/08/02 11:04:20;;;;;;;0.30;0.30;;;;;;;30.37;60.81;98946.91;4412500;32;20108;-83
2023/08/02 11:06:45;;;;;;;0.00;0.00;;;;;;;30.61;60.82;98946.47;4425719;32;20419;-83
2023/08/02 11:09:10;;;;;;;0.00;0.00;;;;;;;30.63;60.82;98941.72;4425479;32;20136;-83
2023/08/02 11:11:36;;;;;;;0.00;0.00;;;;;;;30.88;60.83;98944.75;4439068;32;30844;-83
2023/08/02 11:14:02;;;;;;;0.10;0.10;;;;;;;30.91;60.83;98943.53;4413124;32;20453;-83
2023/08/02 11:16:28;;;;;;;0.00;0.00;;;;;;;30.90;60.83;98949.94;4439751;32;20132;-83
2023/08/02 11:18:53;;;;;;;0.00;0.00;;;;;;;31.08;60.85;98940.31;4425812;32;20215;-83
2023/08/02 11:21:18;;;;;;;0.10;0.10;;;;;;;30.77;60.84;98931.91;4425635;32;20119;-83
2023/08/02 11:23:49;;;;;;;0.00;0.00;;;;;;;30.85;60.84;98929.03;4439285;32;20089;-83
2023/08/02 11:26:18;;;;;;;0.00;0.00;;;;;;;31.07;60.85;98917.16;4414029;32;20335;-82
2023/08/02 11:28:48;;;;;;;0.32;0.20;;;;;;;31.01;60.85;98915.28;4412932;32;20139;-82
2023/08/02 11:31:13;;;;;;;;;;;;;;;31.09;60.85;98914.25;4400656;32;20456;-83
2023/08/02 11:33:40;;;;;;;0.00;0.00;;;;;;;31.07;60.85;98906.41;4425761;32;20551;-82